Time;durP1;ratioP1;P1;durP2;ratioP2;P2;SDS_P1;SDS_P2;PMS_P1;PMS_P2;Temp;Humidity;BMP_temperature;BMP_pressure;BME280_temperature;BME280_humidity;BME280_pressure;Samples;Min_cycle;Max_cycle;Signal;HPM_P1;HPM_P2
2023/10/07 00:01:11;;;;;;;22.15;20.05;;;;;;;;;;4984248;28;20603;-66
2023/10/07 00:03:38;;;;;;;19.80;18.67;;;;;;;;;;5002354;28;20046;-65
2023/10/07 00:06:09;;;;;;;20.52;19.20;;;;;;;;;;4997561;28;21056;-65
2023/10/07 00:08:34;;;;;;;19.95;18.85;;;;;;;;;;5000767;28;20034;-65
2023/10/07 00:11:00;;;;;;;22.00;20.70;;;;;;;;;;5003324;28;20037;-65
2023/10/07 00:13:30;;;;;;;22.30;20.30;;;;;;;;;;5002658;28;20107;-65
2023/10/07 00:15:56;;;;;;;22.33;20.77;;;;;;;;;;5004250;28;20113;-65
2023/10/07 00:18:23;;;;;;;20.45;19.05;;;;;;;;;;5001151;28;20184;-65
2023/10/07 00:20:54;;;;;;;23.38;21.63;;;;;;;;;;5003608;28;20038;-65
2023/10/07 00:23:21;;;;;;;20.58;19.10;;;;;;;;;;5004180;28;20030;-65
2023/10/07 00:25:51;;;;;;;19.98;18.80;;;;;;;;;;5003785;28;20034;-65
2023/10/07 00:28:18;;;;;;;21.27;19.98;;;;;;;;;;5002861;28;20426;-65
2023/10/07 00:30:45;;;;;;;20.55;19.27;;;;;;;;;;4999697;28;20030;-65
2023/10/07 00:33:12;;;;;;;22.40;20.85;;;;;;;;;;5003280;28;20037;-65
2023/10/07 00:35:37;;;;;;;20.33;19.13;;;;;;;;;;5001622;28;20539;-65
2023/10/07 00:38:03;;;;;;;18.98;17.83;;;;;;;;;;5002983;28;20041;-65
2023/10/07 00:40:42;;;;;;;19.80;18.63;;;;;;;;;;4999513;28;20476;-65
2023/10/07 00:43:09;;;;;;;19.23;17.95;;;;;;;;;;4987150;28;20034;-65
2023/10/07 00:45:35;;;;;;;19.52;18.33;;;;;;;;;;4999087;28;20121;-65
2023/10/07 00:48:04;;;;;;;21.67;20.25;;;;;;;;;;4985383;28;20575;-65
2023/10/07 00:50:30;;;;;;;21.48;20.02;;;;;;;;;;5000837;28;20041;-65
2023/10/07 00:52:57;;;;;;;21.10;19.80;;;;;;;;;;4984823;28;20041;-65
2023/10/07 00:55:30;;;;;;;20.48;19.25;;;;;;;;;;5003358;28;20034;-65
2023/10/07 01:00:47;;;;;;;21.30;19.85;;;;;;;;;;5004148;28;20037;-66
2023/10/07 01:08:27;;;;;;;26.77;19.33;;;;;;;;;;5003656;28;20527;-66
2023/10/07 01:11:06;;;;;;;19.52;18.35;;;;;;;;;;4983365;28;20039;-66
2023/10/07 01:13:35;;;;;;;20.02;18.73;;;;;;;;;;5001741;28;20464;-66
2023/10/07 01:16:06;;;;;;;21.77;20.20;;;;;;;;;;5001893;28;20034;-66
2023/10/07 01:18:38;;;;;;;22.92;20.90;;;;;;;;;;5001724;28;20045;-66
2023/10/07 01:21:11;;;;;;;19.90;18.70;;;;;;;;;;5001568;28;20053;-66
2023/10/07 01:23:39;;;;;;;21.20;19.80;;;;;;;;;;5002480;28;20061;-66
2023/10/07 01:26:14;;;;;;;20.35;19.08;;;;;;;;;;5007636;28;20364;-66
2023/10/07 01:28:44;;;;;;;21.20;19.73;;;;;;;;;;5005702;28;20037;-66
2023/10/07 01:31:12;;;;;;;19.42;18.25;;;;;;;;;;5003015;28;20037;-66
2023/10/07 01:33:46;;;;;;;19.67;18.52;;;;;;;;;;5004915;28;20052;-66
2023/10/07 01:38:44;;;;;;;20.15;18.75;;;;;;;;;;4989817;28;20030;-66
2023/10/07 01:41:18;;;;;;;19.95;18.75;;;;;;;;;;5005095;28;20048;-66
2023/10/07 01:43:49;;;;;;;21.35;19.95;;;;;;;;;;5004417;28;20045;-66
2023/10/07 01:46:19;;;;;;;20.70;19.38;;;;;;;;;;5004207;28;20027;-66
2023/10/07 01:48:55;;;;;;;18.50;17.42;;;;;;;;;;5003309;28;20030;-66
2023/10/07 01:51:21;;;;;;;20.52;19.23;;;;;;;;;;4973079;28;20061;-66
2023/10/07 01:53:47;;;;;;;19.05;17.75;;;;;;;;;;5004383;28;20034;-66
2023/10/07 01:56:16;;;;;;;22.67;21.17;;;;;;;;;;5005073;28;20644;-65
2023/10/07 01:58:42;;;;;;;19.67;18.48;;;;;;;;;;5003528;28;20060;-65
2023/10/07 02:01:07;;;;;;;19.25;17.30;;;;;;;;;;4985591;28;20447;-65
2023/10/07 02:03:33;;;;;;;19.42;18.33;;;;;;;;;;5005695;28;20071;-65
2023/10/07 02:05:58;;;;;;;19.65;18.15;;;;;;;;;;5001461;28;20054;-65
2023/10/07 02:08:25;;;;;;;20.08;18.88;;;;;;;;;;5004777;28;20038;-65
2023/10/07 02:10:51;;;;;;;19.50;18.40;;;;;;;;;;5003326;28;20096;-65
2023/10/07 02:13:19;;;;;;;18.95;17.63;;;;;;;;;;4984568;28;20050;-65
2023/10/07 02:15:52;;;;;;;19.33;18.13;;;;;;;;;;5003519;28;20042;-65
2023/10/07 02:18:18;;;;;;;19.98;18.77;;;;;;;;;;5003540;28;20040;-66
2023/10/07 02:20:43;;;;;;;22.38;20.90;;;;;;;;;;4989109;28;20030;-66
2023/10/07 02:23:13;;;;;;;20.00;18.80;;;;;;;;;;5004767;28;20068;-65
2023/10/07 02:25:42;;;;;;;19.08;17.85;;;;;;;;;;5005091;28;20802;-65
2023/10/07 02:28:08;;;;;;;20.38;19.20;;;;;;;;;;5004708;28;20176;-65
2023/10/07 02:30:51;;;;;;;19.25;17.95;;;;;;;;;;5003854;28;20030;-65
2023/10/07 02:33:16;;;;;;;19.25;17.98;;;;;;;;;;5004108;28;20034;-65
2023/10/07 02:35:46;;;;;;;21.40;19.83;;;;;;;;;;5004193;28;20049;-65
2023/10/07 02:38:12;;;;;;;20.38;19.08;;;;;;;;;;5005303;28;20561;-65
2023/10/07 02:40:49;;;;;;;20.58;19.13;;;;;;;;;;5004221;28;20042;-64
2023/10/07 02:43:15;;;;;;;19.80;18.42;;;;;;;;;;5005270;28;20033;-64
2023/10/07 02:45:42;;;;;;;18.30;17.25;;;;;;;;;;5000563;28;20076;-64
2023/10/07 02:48:11;;;;;;;20.33;19.00;;;;;;;;;;4987796;28;20650;-64
2023/10/07 02:50:41;;;;;;;17.98;16.88;;;;;;;;;;5006207;28;20045;-64
2023/10/07 02:53:11;;;;;;;16.27;15.27;;;;;;;;;;5004037;28;20038;-64
2023/10/07 02:55:47;;;;;;;18.13;17.00;;;;;;;;;;5005361;28;20053;-65
2023/10/07 02:58:32;;;;;;;17.40;16.17;;;;;;;;;;5004982;28;20533;-64
2023/10/07 03:01:11;;;;;;;17.38;16.27;;;;;;;;;;5003876;28;20080;-64
2023/10/07 03:03:41;;;;;;;19.42;18.23;;;;;;;;;;5005979;28;20068;-64
2023/10/07 03:06:07;;;;;;;17.27;16.15;;;;;;;;;;5002977;28;20038;-64
2023/10/07 03:11:20;;;;;;;20.25;18.35;;;;;;;;;;5004906;28;20704;-64
2023/10/07 03:13:46;;;;;;;19.17;17.77;;;;;;;;;;5004394;28;20611;-65
2023/10/07 03:18:56;;;;;;;18.15;16.77;;;;;;;;;;5003017;28;20141;-64
2023/10/07 03:21:35;;;;;;;18.05;16.88;;;;;;;;;;5003724;28;20088;-64
2023/10/07 03:24:00;;;;;;;16.38;15.40;;;;;;;;;;5003540;28;20037;-64
2023/10/07 03:26:26;;;;;;;16.88;15.82;;;;;;;;;;5004734;28;20036;-65
2023/10/07 03:28:53;;;;;;;20.73;19.05;;;;;;;;;;5002900;28;20038;-64
2023/10/07 03:31:20;;;;;;;16.90;15.90;;;;;;;;;;5003953;28;20444;-64
2023/10/07 03:38:50;;;;;;;17.00;16.00;;;;;;;;;;5003951;28;20038;-64
2023/10/07 03:41:21;;;;;;;19.88;18.38;;;;;;;;;;5004612;28;20508;-65
2023/10/07 03:43:46;;;;;;;18.13;16.77;;;;;;;;;;5002748;28;20048;-64
2023/10/07 03:46:15;;;;;;;20.40;18.95;;;;;;;;;;5002634;28;20034;-66
2023/10/07 03:48:49;;;;;;;18.50;17.13;;;;;;;;;;4987009;28;20148;-67
2023/10/07 03:51:15;;;;;;;18.23;16.92;;;;;;;;;;4985595;28;20085;-64
2023/10/07 03:53:46;;;;;;;17.75;16.30;;;;;;;;;;5002433;28;20163;-64
2023/10/07 03:56:13;;;;;;;20.10;18.48;;;;;;;;;;5001862;28;20503;-65
2023/10/07 03:58:41;;;;;;;18.45;17.30;;;;;;;;;;5001613;28;20041;-64
2023/10/07 04:01:42;;;;;;;22.55;18.23;;;;;;;;;;4986962;28;20026;-66
2023/10/07 04:03:59;;;;;;;21.73;17.42;;;;;;;;;;4999454;28;20124;-64
2023/10/07 04:06:32;;;;;;;18.90;17.60;;;;;;;;;;5001835;28;20124;-66
2023/10/07 04:09:05;;;;;;;21.02;19.60;;;;;;;;;;4983650;28;20030;-66
2023/10/07 04:11:36;;;;;;;19.92;18.67;;;;;;;;;;5001602;28;20420;-66
2023/10/07 04:16:50;;;;;;;17.90;16.60;;;;;;;;;;5002654;28;20029;-64
2023/10/07 04:21:41;;;;;;;17.60;16.50;;;;;;;;;;5004010;28;20538;-66
2023/10/07 04:24:11;;;;;;;17.23;16.13;;;;;;;;;;5002696;28;20048;-65
2023/10/07 04:26:42;;;;;;;19.83;18.52;;;;;;;;;;5004304;28;20026;-65
2023/10/07 04:29:16;;;;;;;19.83;18.25;;;;;;;;;;5002533;28;20475;-65
2023/10/07 04:31:46;;;;;;;19.10;17.83;;;;;;;;;;4999907;28;20037;-66
2023/10/07 04:34:13;;;;;;;19.73;18.52;;;;;;;;;;4999856;28;20151;-65
2023/10/07 04:37:08;;;;;;;19.85;18.67;;;;;;;;;;4985994;28;20038;-66
2023/10/07 04:42:22;;;;;;;20.33;18.92;;;;;;;;;;4982523;28;20124;-63
2023/10/07 04:52:33;;;;;;;20.58;18.83;;;;;;;;;;5002236;28;20085;-65
2023/10/07 04:55:00;;;;;;;19.88;18.45;;;;;;;;;;5004068;28;20648;-63
2023/10/07 04:57:56;;;;;;;19.25;17.75;;;;;;;;;;5002281;28;20033;-65
2023/10/07 05:02:58;;;;;;;17.77;16.67;;;;;;;;;;5007481;28;20046;-65
2023/10/07 05:05:33;;;;;;;18.95;17.75;;;;;;;;;;5004548;28;20109;-63
2023/10/07 05:08:11;;;;;;;20.08;18.00;;;;;;;;;;5003808;28;20048;-63
2023/10/07 05:13:58;;;;;;;17.67;16.58;;;;;;;;;;5002550;28;20052;-63
2023/10/07 05:16:25;;;;;;;17.02;15.90;;;;;;;;;;5005365;28;20034;-64
2023/10/07 05:18:50;;;;;;;17.27;16.27;;;;;;;;;;5005135;28;20042;-64
2023/10/07 05:21:19;;;;;;;19.08;17.20;;;;;;;;;;5005348;28;20463;-65
2023/10/07 05:23:46;;;;;;;17.25;16.05;;;;;;;;;;5006697;28;20066;-64
2023/10/07 05:26:17;;;;;;;15.95;14.98;;;;;;;;;;5004115;28;20036;-63
2023/10/07 05:28:44;;;;;;;;;;;;;;;;;;5005736;28;20034;-64
2023/10/07 05:31:11;;;;;;;16.13;15.20;;;;;;;;;;5001430;28;19917;-64
2023/10/07 05:33:37;;;;;;;17.08;15.98;;;;;;;;;;5004590;28;20025;-64
2023/10/07 05:36:14;;;;;;;16.80;15.73;;;;;;;;;;5005224;28;20076;-64
2023/10/07 05:38:41;;;;;;;16.58;15.48;;;;;;;;;;5004040;28;20045;-64
2023/10/07 05:41:12;;;;;;;18.27;16.95;;;;;;;;;;4987090;28;20121;-63
2023/10/07 05:43:43;;;;;;;16.13;14.98;;;;;;;;;;5005054;28;20034;-64
2023/10/07 05:46:10;;;;;;;17.42;16.02;;;;;;;;;;5005699;28;20061;-64
2023/10/07 05:48:38;;;;;;;17.60;16.23;;;;;;;;;;5006844;28;21178;-63
2023/10/07 05:51:07;;;;;;;17.42;16.00;;;;;;;;;;5002928;28;20046;-64
2023/10/07 05:53:39;;;;;;;19.83;18.30;;;;;;;;;;5003572;28;20080;-64
2023/10/07 05:56:06;;;;;;;16.90;15.90;;;;;;;;;;5008267;28;20034;-63
2023/10/07 05:58:39;;;;;;;18.30;16.98;;;;;;;;;;5006575;28;20463;-65
2023/10/07 06:01:06;;;;;;;17.70;16.52;;;;;;;;;;5005304;28;20038;-63
2023/10/07 06:03:32;;;;;;;16.92;15.90;;;;;;;;;;5007650;28;20040;-65
2023/10/07 06:05:58;;;;;;;15.77;14.77;;;;;;;;;;5003268;28;20056;-63
2023/10/07 06:08:28;;;;;;;18.85;17.60;;;;;;;;;;5002395;28;20026;-63
2023/10/07 06:10:56;;;;;;;17.80;16.70;;;;;;;;;;5005544;28;20040;-63
2023/10/07 06:13:22;;;;;;;18.92;17.20;;;;;;;;;;5003355;28;20467;-63
2023/10/07 06:15:47;;;;;;;18.02;16.98;;;;;;;;;;5004289;28;20120;-64
2023/10/07 06:18:18;;;;;;;18.85;17.52;;;;;;;;;;5004567;28;20418;-63
2023/10/07 06:20:50;;;;;;;18.30;17.20;;;;;;;;;;5003791;28;20034;-64
2023/10/07 06:23:16;;;;;;;19.48;18.13;;;;;;;;;;4984978;28;20073;-64
2023/10/07 06:25:49;;;;;;;20.27;19.05;;;;;;;;;;5003691;28;20092;-65
2023/10/07 06:31:11;;;;;;;19.30;17.98;;;;;;;;;;5003662;28;20133;-66
2023/10/07 06:33:44;;;;;;;19.42;17.35;;;;;;;;;;5004720;28;20026;-65
2023/10/07 06:36:14;;;;;;;20.33;18.95;;;;;;;;;;5005155;28;20038;-65
2023/10/07 06:38:46;;;;;;;21.80;20.40;;;;;;;;;;5006559;28;20077;-68
2023/10/07 06:41:12;;;;;;;18.67;17.58;;;;;;;;;;5001134;28;20293;-68
2023/10/07 06:43:42;;;;;;;19.88;18.67;;;;;;;;;;5005115;28;20030;-67
2023/10/07 06:46:11;;;;;;;19.98;18.50;;;;;;;;;;5003831;28;20052;-67
2023/10/07 06:48:37;;;;;;;18.95;17.80;;;;;;;;;;4985295;28;20034;-67
2023/10/07 06:51:03;;;;;;;21.83;20.33;;;;;;;;;;5001777;28;20053;-68
2023/10/07 06:53:30;;;;;;;21.10;19.70;;;;;;;;;;5004314;28;20038;-68
2023/10/07 06:56:01;;;;;;;20.27;18.98;;;;;;;;;;5001167;28;20038;-67
2023/10/07 06:58:27;;;;;;;22.27;20.33;;;;;;;;;;4988465;28;20038;-68
2023/10/07 07:00:59;;;;;;;23.55;21.70;;;;;;;;;;5003014;28;20464;-67
2023/10/07 07:03:25;;;;;;;21.98;20.20;;;;;;;;;;5002909;28;20034;-67
2023/10/07 07:05:52;;;;;;;22.27;20.88;;;;;;;;;;5003137;28;20029;-67
2023/10/07 07:08:22;;;;;;;21.63;20.27;;;;;;;;;;5003696;28;20049;-67
2023/10/07 07:10:55;;;;;;;20.15;18.98;;;;;;;;;;4973364;28;20113;-67
2023/10/07 07:13:26;;;;;;;20.40;19.25;;;;;;;;;;4983781;28;20033;-66
2023/10/07 07:16:03;;;;;;;24.40;22.83;;;;;;;;;;5003796;28;20033;-66
2023/10/07 07:18:32;;;;;;;21.20;20.00;;;;;;;;;;5003874;28;20034;-66
2023/10/07 07:21:14;;;;;;;22.27;20.90;;;;;;;;;;5002864;28;20125;-67
2023/10/07 07:23:49;;;;;;;21.25;19.95;;;;;;;;;;4989484;28;20046;-66
2023/10/07 07:26:18;;;;;;;21.00;19.70;;;;;;;;;;5006071;28;20379;-67
2023/10/07 07:28:44;;;;;;;21.00;19.83;;;;;;;;;;5003353;28;20038;-66
2023/10/07 07:31:11;;;;;;;22.73;21.20;;;;;;;;;;5003595;28;20108;-66
2023/10/07 07:33:37;;;;;;;20.55;19.35;;;;;;;;;;5001549;28;20497;-67
2023/10/07 07:36:18;;;;;;;23.05;21.75;;;;;;;;;;5005830;28;20064;-67
2023/10/07 07:38:45;;;;;;;23.80;22.15;;;;;;;;;;5003536;28;20025;-66
2023/10/07 07:41:26;;;;;;;22.77;21.38;;;;;;;;;;5002132;28;20034;-66
2023/10/07 07:43:51;;;;;;;;;;;;;;;;;;4987009;28;20034;-68
2023/10/07 07:46:26;;;;;;;21.63;20.33;;;;;;;;;;5004931;28;20421;-67
2023/10/07 07:49:08;;;;;;;21.98;20.67;;;;;;;;;;5000653;28;20034;-67
2023/10/07 07:51:41;;;;;;;23.92;22.30;;;;;;;;;;4985220;28;20423;-67
2023/10/07 07:54:08;;;;;;;23.38;21.98;;;;;;;;;;4999967;28;20566;-68
2023/10/07 07:56:37;;;;;;;24.70;23.20;;;;;;;;;;4984271;28;20042;-67
2023/10/07 07:59:13;;;;;;;23.15;21.63;;;;;;;;;;5002878;28;20038;-67
2023/10/07 08:01:45;;;;;;;24.52;23.02;;;;;;;;;;5002655;28;20041;-67
2023/10/07 08:04:17;;;;;;;23.67;22.08;;;;;;;;;;5001769;28;20042;-67
2023/10/07 08:06:49;;;;;;;25.35;23.80;;;;;;;;;;5002708;28;20061;-69
2023/10/07 08:09:19;;;;;;;24.83;23.13;;;;;;;;;;5003489;28;20547;-67
2023/10/07 08:11:49;;;;;;;22.45;21.05;;;;;;;;;;5000949;28;20034;-67
2023/10/07 08:14:17;;;;;;;24.10;22.55;;;;;;;;;;4999270;28;20048;-68
2023/10/07 08:16:51;;;;;;;23.38;22.00;;;;;;;;;;4982753;28;20100;-68
2023/10/07 08:19:23;;;;;;;22.60;21.33;;;;;;;;;;4979848;28;20040;-68
2023/10/07 08:21:53;;;;;;;23.85;22.40;;;;;;;;;;5001069;28;20546;-68
2023/10/07 08:24:21;;;;;;;22.17;20.77;;;;;;;;;;4996029;28;20034;-68
2023/10/07 08:26:59;;;;;;;20.70;19.50;;;;;;;;;;4995935;28;20030;-68
2023/10/07 08:29:32;;;;;;;21.25;19.65;;;;;;;;;;4996631;28;20045;-68
2023/10/07 08:32:10;;;;;;;21.92;20.65;;;;;;;;;;4999245;28;20359;-68
2023/10/07 08:34:35;;;;;;;20.35;19.02;;;;;;;;;;5006013;28;20279;-68
2023/10/07 08:37:02;;;;;;;20.85;19.52;;;;;;;;;;5006697;28;20737;-68
2023/10/07 08:39:28;;;;;;;18.83;17.70;;;;;;;;;;5002646;28;20042;-68
2023/10/07 08:41:58;;;;;;;21.83;20.10;;;;;;;;;;5006786;28;20156;-68
2023/10/07 08:44:31;;;;;;;17.58;16.50;;;;;;;;;;5006143;28;20676;-68
2023/10/07 08:47:04;;;;;;;18.63;17.48;;;;;;;;;;5004527;28;20648;-68
2023/10/07 08:49:35;;;;;;;18.42;17.33;;;;;;;;;;5002733;28;20042;-68
2023/10/07 08:52:08;;;;;;;;;;;;;;;;;;5003275;28;20140;-68
2023/10/07 08:54:37;;;;;;;19.80;18.63;;;;;;;;;;5007333;28;19925;-68
2023/10/07 08:57:10;;;;;;;20.92;19.33;;;;;;;;;;5000390;28;20466;-68
2023/10/07 08:59:40;;;;;;;18.55;17.35;;;;;;;;;;5005173;28;20188;-68
2023/10/07 09:02:12;;;;;;;18.38;17.27;;;;;;;;;;5000662;28;20041;-67
2023/10/07 09:04:40;;;;;;;18.25;17.15;;;;;;;;;;5004205;28;20519;-68
2023/10/07 09:07:08;;;;;;;20.10;18.83;;;;;;;;;;5001237;28;20029;-68
2023/10/07 09:09:38;;;;;;;20.55;19.15;;;;;;;;;;5005566;28;20085;-65
2023/10/07 09:12:36;;;;;;;19.10;17.90;;;;;;;;;;5005518;28;20041;-65
2023/10/07 09:14:57;;;;;;;19.25;18.05;;;;;;;;;;4987759;28;20569;-65
2023/10/07 09:17:26;;;;;;;16.88;15.88;;;;;;;;;;4991099;28;20030;-66
2023/10/07 09:19:53;;;;;;;17.83;16.75;;;;;;;;;;5001391;28;20041;-65
2023/10/07 09:22:24;;;;;;;17.88;16.77;;;;;;;;;;5002432;28;20091;-66
2023/10/07 09:25:08;;;;;;;17.08;16.08;;;;;;;;;;5004487;28;20103;-66
2023/10/07 09:27:37;;;;;;;18.30;17.20;;;;;;;;;;4989303;28;20046;-66
2023/10/07 09:30:28;;;;;;;18.25;17.17;;;;;;;;;;5005191;28;20029;-65
2023/10/07 09:32:55;;;;;;;17.83;16.73;;;;;;;;;;5000098;28;20034;-65
2023/10/07 09:35:24;;;;;;;17.40;16.10;;;;;;;;;;5000659;28;20034;-65
2023/10/07 09:37:54;;;;;;;19.55;18.30;;;;;;;;;;5004428;28;20121;-66
2023/10/07 09:43:20;;;;;;;19.45;18.23;;;;;;;;;;5002271;28;20066;-68
2023/10/07 09:45:52;;;;;;;18.98;17.88;;;;;;;;;;4986339;28;20392;-67
2023/10/07 09:48:29;;;;;;;17.52;16.48;;;;;;;;;;4988304;28;20455;-64
2023/10/07 09:50:58;;;;;;;17.13;16.02;;;;;;;;;;4988547;28;20052;-64
2023/10/07 09:53:48;;;;;;;18.40;17.20;;;;;;;;;;5003483;28;20037;-64
2023/10/07 09:56:32;;;;;;;17.38;16.38;;;;;;;;;;5004116;28;20041;-66
2023/10/07 09:59:22;;;;;;;16.80;15.80;;;;;;;;;;4986498;28;20344;-66
2023/10/07 10:02:16;;;;;;;19.70;18.27;;;;;;;;;;5003897;28;20030;-66
2023/10/07 10:05:04;;;;;;;16.90;15.85;;;;;;;;;;4997314;28;20040;-66
2023/10/07 10:08:11;;;;;;;18.15;17.10;;;;;;;;;;5001816;28;20041;-66
2023/10/07 10:10:44;;;;;;;18.08;16.98;;;;;;;;;;4998987;28;20123;-65
2023/10/07 10:16:28;;;;;;;17.77;16.67;;;;;;;;;;5004961;28;20777;-65
2023/10/07 10:19:11;;;;;;;19.17;18.00;;;;;;;;;;5000919;28;20041;-65
2023/10/07 10:21:37;;;;;;;18.80;17.63;;;;;;;;;;4996296;28;20038;-65
2023/10/07 10:24:03;;;;;;;18.95;17.85;;;;;;;;;;5005059;28;20030;-66
2023/10/07 10:26:33;;;;;;;20.27;19.02;;;;;;;;;;5004787;28;20664;-64
2023/10/07 10:29:06;;;;;;;19.88;18.63;;;;;;;;;;5004489;28;20089;-65
2023/10/07 10:31:33;;;;;;;18.95;17.75;;;;;;;;;;5000298;28;20109;-65
2023/10/07 10:34:04;;;;;;;18.25;16.67;;;;;;;;;;4985826;28;20033;-65
2023/10/07 10:36:31;;;;;;;18.75;15.50;;;;;;;;;;5001739;28;20034;-64
2023/10/07 10:39:00;;;;;;;17.88;16.58;;;;;;;;;;5000974;28;20035;-64
2023/10/07 10:41:29;;;;;;;19.25;18.15;;;;;;;;;;4981640;28;20113;-63
2023/10/07 10:44:10;;;;;;;17.38;16.17;;;;;;;;;;5001043;28;20035;-64
2023/10/07 10:46:51;;;;;;;17.42;16.23;;;;;;;;;;5003787;28;20030;-64
2023/10/07 10:49:20;;;;;;;18.95;17.75;;;;;;;;;;5002600;28;20092;-63
2023/10/07 10:51:48;;;;;;;21.48;16.55;;;;;;;;;;5000971;28;20443;-65
2023/10/07 10:54:21;;;;;;;16.13;15.23;;;;;;;;;;4998097;28;20406;-67
2023/10/07 10:57:00;;;;;;;17.58;16.20;;;;;;;;;;5000626;28;20048;-62
2023/10/07 10:59:42;;;;;;;17.73;16.60;;;;;;;;;;5001901;28;20034;-64
2023/10/07 11:02:11;;;;;;;15.90;15.00;;;;;;;;;;5002930;28;20076;-62
2023/10/07 11:04:37;;;;;;;15.73;14.82;;;;;;;;;;5002231;28;20036;-65
2023/10/07 11:07:07;;;;;;;16.60;15.70;;;;;;;;;;5004436;28;20026;-67
2023/10/07 11:09:37;;;;;;;18.42;17.25;;;;;;;;;;5002368;28;20034;-71
2023/10/07 11:12:16;;;;;;;19.15;17.98;;;;;;;;;;4982817;28;20463;-70
2023/10/07 11:14:43;;;;;;;18.33;17.10;;;;;;;;;;5003839;28;20574;-70
2023/10/07 11:17:10;;;;;;;18.58;17.13;;;;;;;;;;5000700;28;20034;-69
2023/10/07 11:19:40;;;;;;;18.75;17.65;;;;;;;;;;5002877;28;20422;-68
2023/10/07 11:22:07;;;;;;;;;;;;;;;;;;5001606;28;20042;-66
2023/10/07 11:24:35;;;;;;;20.05;18.55;;;;;;;;;;5002398;28;20015;-65
2023/10/07 11:27:02;;;;;;;19.30;18.00;;;;;;;;;;4970675;28;20117;-64
2023/10/07 11:29:30;;;;;;;22.88;19.63;;;;;;;;;;5002472;28;20030;-68
2023/10/07 11:32:04;;;;;;;19.60;18.48;;;;;;;;;;5003502;28;20109;-68
2023/10/07 11:34:36;;;;;;;21.50;20.25;;;;;;;;;;5000580;28;20030;-65
2023/10/07 11:37:23;;;;;;;19.70;18.60;;;;;;;;;;4997977;28;20400;-66
2023/10/07 11:39:49;;;;;;;18.65;17.55;;;;;;;;;;5000751;28;20207;-65
2023/10/07 11:42:21;;;;;;;21.20;19.90;;;;;;;;;;4999728;28;20091;-66
2023/10/07 11:44:53;;;;;;;23.08;21.35;;;;;;;;;;5001905;28;20037;-68
2023/10/07 11:47:19;;;;;;;22.77;21.42;;;;;;;;;;5001845;28;20042;-63
2023/10/07 11:49:48;;;;;;;22.08;20.73;;;;;;;;;;5000513;28;20033;-65
2023/10/07 11:52:17;;;;;;;21.70;20.40;;;;;;;;;;4999183;28;20045;-63
2023/10/07 11:54:43;;;;;;;22.52;21.25;;;;;;;;;;5002307;28;20045;-64
2023/10/07 11:57:09;;;;;;;20.63;19.48;;;;;;;;;;5003154;28;20368;-65
2023/10/07 11:59:36;;;;;;;21.73;20.52;;;;;;;;;;5001622;28;20030;-64
2023/10/07 12:02:09;;;;;;;18.90;17.80;;;;;;;;;;5003167;28;20088;-64
2023/10/07 12:04:54;;;;;;;19.73;18.52;;;;;;;;;;5000525;28;20038;-65
2023/10/07 12:07:19;;;;;;;18.13;17.10;;;;;;;;;;5000023;28;20129;-63
2023/10/07 12:09:47;;;;;;;20.60;19.38;;;;;;;;;;5001394;28;20112;-65
2023/10/07 12:12:17;;;;;;;18.40;17.38;;;;;;;;;;5002142;28;20034;-65
2023/10/07 12:14:43;;;;;;;21.52;20.33;;;;;;;;;;5000282;28;20030;-65
2023/10/07 12:17:09;;;;;;;19.70;18.52;;;;;;;;;;5003263;28;20121;-65
2023/10/07 12:19:36;;;;;;;20.23;19.02;;;;;;;;;;4997728;28;20144;-69
2023/10/07 12:22:05;;;;;;;21.00;19.30;;;;;;;;;;4981074;28;20038;-67
2023/10/07 12:24:31;;;;;;;25.17;23.77;;;;;;;;;;5000245;28;20045;-68
2023/10/07 12:26:56;;;;;;;27.67;26.23;;;;;;;;;;4998129;28;20038;-67
2023/10/07 12:29:25;;;;;;;26.13;24.67;;;;;;;;;;4982078;28;20085;-65
2023/10/07 12:31:51;;;;;;;21.98;20.77;;;;;;;;;;4998030;28;20027;-66
2023/10/07 12:34:17;;;;;;;24.23;22.92;;;;;;;;;;4986996;28;20041;-66
2023/10/07 12:36:42;;;;;;;18.05;17.05;;;;;;;;;;4982474;28;20396;-67
2023/10/07 12:39:11;;;;;;;20.42;19.23;;;;;;;;;;5000941;28;20034;-66
2023/10/07 12:41:47;;;;;;;25.73;24.30;;;;;;;;;;4996450;28;20576;-68
2023/10/07 12:44:12;;;;;;;24.15;22.85;;;;;;;;;;5003256;28;20041;-65
2023/10/07 12:46:43;;;;;;;21.05;19.88;;;;;;;;;;4987102;28;20577;-66
2023/10/07 12:49:10;;;;;;;;;;;;;;;;;;5000423;28;20076;-67
2023/10/07 12:51:41;;;;;;;17.83;16.83;;;;;;;;;;5001422;28;20016;-68
2023/10/07 12:54:10;;;;;;;18.85;17.75;;;;;;;;;;4997723;28;20192;-64
2023/10/07 12:56:42;;;;;;;19.45;18.35;;;;;;;;;;4965705;28;20029;-69
2023/10/07 12:59:18;;;;;;;20.60;19.42;;;;;;;;;;4998704;28;20033;-68
2023/10/07 13:01:50;;;;;;;23.88;22.52;;;;;;;;;;4999458;28;20045;-68
2023/10/07 13:04:16;;;;;;;41.13;38.97;;;;;;;;;;5001748;28;20454;-69
2023/10/07 13:06:42;;;;;;;24.08;22.58;;;;;;;;;;4997168;28;20490;-67
2023/10/07 13:09:16;;;;;;;33.60;31.80;;;;;;;;;;4999738;28;20113;-65
2023/10/07 13:11:42;;;;;;;27.88;26.38;;;;;;;;;;5004388;28;20041;-67
2023/10/07 13:14:08;;;;;;;47.33;44.90;;;;;;;;;;5002110;28;20034;-68
2023/10/07 13:16:37;;;;;;;65.30;62.03;;;;;;;;;;4995169;28;20376;-69
2023/10/07 13:19:03;;;;;;;61.47;58.30;;;;;;;;;;5000414;28;20030;-67
2023/10/07 13:21:29;;;;;;;62.28;58.92;;;;;;;;;;5002089;28;20038;-68
2023/10/07 13:23:59;;;;;;;44.47;42.20;;;;;;;;;;5001849;28;20379;-67
2023/10/07 13:26:24;;;;;;;71.43;67.83;;;;;;;;;;4986136;28;20096;-68
2023/10/07 13:28:50;;;;;;;84.68;80.38;;;;;;;;;;5001847;28;20435;-66
2023/10/07 13:31:17;;;;;;;62.00;58.80;;;;;;;;;;4973716;28;20054;-67
2023/10/07 13:33:45;;;;;;;84.38;80.15;;;;;;;;;;5002652;28;20029;-68
2023/10/07 13:36:11;;;;;;;86.00;81.15;;;;;;;;;;4983616;28;20077;-69
2023/10/07 13:38:37;;;;;;;54.55;51.65;;;;;;;;;;5004919;28;20026;-64
2023/10/07 13:41:03;;;;;;;46.17;43.75;;;;;;;;;;5002310;28;20026;-68
2023/10/07 13:43:29;;;;;;;94.50;89.85;;;;;;;;;;5003222;28;20041;-64
2023/10/07 13:45:56;;;;;;;55.38;52.60;;;;;;;;;;5003101;28;20030;-68
2023/10/07 13:48:22;;;;;;;86.63;82.32;;;;;;;;;;4986150;28;20129;-68
2023/10/07 13:50:49;;;;;;;91.75;87.13;;;;;;;;;;5003228;28;20018;-67
2023/10/07 13:53:15;;;;;;;76.95;73.00;;;;;;;;;;5004230;28;20409;-68
2023/10/07 13:58:09;;;;;;;42.38;40.13;;;;;;;;;;5004373;28;20034;-68
2023/10/07 14:00:36;;;;;;;65.10;61.83;;;;;;;;;;5000422;28;21221;-64
2023/10/07 14:03:02;;;;;;;54.72;51.88;;;;;;;;;;4989759;28;20050;-68
2023/10/07 14:05:28;;;;;;;42.45;40.25;;;;;;;;;;5001081;28;20030;-64
2023/10/07 14:07:54;;;;;;;60.08;57.03;;;;;;;;;;4989172;28;20045;-69
2023/10/07 14:10:23;;;;;;;73.63;69.97;;;;;;;;;;5005079;28;20525;-69
2023/10/07 14:12:52;;;;;;;60.85;57.78;;;;;;;;;;5002248;28;20116;-69
2023/10/07 14:15:20;;;;;;;56.30;53.45;;;;;;;;;;4988474;28;20363;-68
2023/10/07 14:17:57;;;;;;;74.32;70.60;;;;;;;;;;5001108;28;20137;-65
2023/10/07 14:20:23;;;;;;;49.53;46.95;;;;;;;;;;5002369;28;20037;-64
2023/10/07 14:22:49;;;;;;;71.63;68.00;;;;;;;;;;4988198;28;20037;-65
2023/10/07 14:25:14;;;;;;;71.78;68.18;;;;;;;;;;4972470;28;20049;-64
2023/10/07 14:27:40;;;;;;;79.25;75.25;;;;;;;;;;5000403;28;20034;-64
2023/10/07 14:30:06;;;;;;;57.95;54.97;;;;;;;;;;5003713;28;20103;-65
2023/10/07 14:32:38;;;;;;;36.65;34.72;;;;;;;;;;5002811;28;20770;-66
2023/10/07 14:35:09;;;;;;;61.55;58.45;;;;;;;;;;5001375;28;20042;-64
2023/10/07 14:37:34;;;;;;;37.05;35.08;;;;;;;;;;5000673;28;20041;-65
2023/10/07 14:40:00;;;;;;;69.43;65.90;;;;;;;;;;4970785;28;20041;-64
2023/10/07 14:42:25;;;;;;;51.65;48.80;;;;;;;;;;5003771;28;20040;-65
2023/10/07 14:44:51;;;;;;;50.50;47.95;;;;;;;;;;4984699;28;20121;-64
2023/10/07 14:47:17;;;;;;;32.13;30.27;;;;;;;;;;5005962;28;20029;-67
2023/10/07 14:49:43;;;;;;;32.45;30.73;;;;;;;;;;5005550;28;20172;-65
2023/10/07 14:52:08;;;;;;;28.95;27.42;;;;;;;;;;5000311;28;20125;-65
2023/10/07 14:54:34;;;;;;;28.95;27.45;;;;;;;;;;4989203;28;20120;-65
2023/10/07 14:57:06;;;;;;;24.45;23.15;;;;;;;;;;5003901;28;20061;-68
2023/10/07 14:59:35;;;;;;;24.38;22.98;;;;;;;;;;5004519;28;20032;-68
2023/10/07 15:02:01;;;;;;;23.33;22.08;;;;;;;;;;5001302;28;20046;-68
2023/10/07 15:04:27;;;;;;;23.48;22.17;;;;;;;;;;5000525;28;20080;-68
2023/10/07 15:06:54;;;;;;;23.08;21.35;;;;;;;;;;5006360;28;20040;-68
2023/10/07 15:09:23;;;;;;;22.10;20.83;;;;;;;;;;4990745;28;20068;-69
2023/10/07 15:11:57;;;;;;;22.48;21.20;;;;;;;;;;5005056;28;20372;-68
2023/10/07 15:14:23;;;;;;;19.30;18.20;;;;;;;;;;5005556;28;20036;-68
2023/10/07 15:16:48;;;;;;;21.90;19.85;;;;;;;;;;5001708;28;20054;-67
2023/10/07 15:19:18;;;;;;;20.58;19.38;;;;;;;;;;4974917;28;20364;-67
2023/10/07 15:21:44;;;;;;;21.95;20.73;;;;;;;;;;5005896;28;20121;-66
2023/10/07 15:24:10;;;;;;;19.35;18.25;;;;;;;;;;5004701;28;20124;-66
2023/10/07 15:26:36;;;;;;;20.65;19.55;;;;;;;;;;5002896;28;20073;-67
2023/10/07 15:29:01;;;;;;;18.60;17.50;;;;;;;;;;5003604;28;20048;-66